Time;durP1;ratioP1;P1;durP2;ratioP2;P2;SDS_P1;SDS_P2;PMS_P1;PMS_P2;Temp;Humidity;BMP_temperature;BMP_pressure;BME280_temperature;BME280_humidity;BME280_pressure;Samples;Min_cycle;Max_cycle;Signal;HPM_P1;HPM_P2
2023/10/03 00:01:37;;;;;;;24.80;12.00;;;15.40;74.80;;;;;;5107778;28;20551;-79
2023/10/03 00:04:07;;;;;;;30.60;12.80;;;15.40;74.80;;;;;;5107523;28;20832;-79
2023/10/03 00:06:36;;;;;;;24.57;12.13;;;15.30;74.90;;;;;;5107593;28;20471;-79
2023/10/03 00:09:07;;;;;;;26.20;11.03;;;15.30;75.00;;;;;;5106476;28;20546;-80
2023/10/03 00:11:35;;;;;;;24.97;12.20;;;15.30;75.20;;;;;;5090151;28;20479;-80
2023/10/03 00:14:07;;;;;;;25.07;11.07;;;15.30;75.20;;;;;;5090066;28;20542;-79
2023/10/03 00:16:35;;;;;;;31.00;13.20;;;15.40;75.30;;;;;;5105831;28;20490;-80
2023/10/03 00:19:04;;;;;;;28.03;12.97;;;15.40;75.30;;;;;;5106770;28;20495;-79
2023/10/03 00:21:33;;;;;;;35.97;13.77;;;15.40;75.20;;;;;;5108405;28;20489;-80
2023/10/03 00:24:02;;;;;;;30.80;13.20;;;15.40;75.10;;;;;;5104961;28;20511;-80
2023/10/03 00:26:33;;;;;;;26.77;12.40;;;15.40;75.00;;;;;;5108169;28;20486;-79
2023/10/03 00:29:01;;;;;;;25.67;12.87;;;15.40;75.10;;;;;;5089196;28;20462;-80
2023/10/03 00:31:30;;;;;;;25.70;13.00;;;15.40;75.00;;;;;;5091352;28;20502;-79
2023/10/03 00:33:59;;;;;;;29.07;13.37;;;15.40;75.00;;;;;;5085384;28;20452;-79
2023/10/03 00:36:31;;;;;;;26.10;11.93;;;15.40;75.00;;;;;;5087433;28;20925;-79
2023/10/03 00:38:59;;;;;;;25.13;12.90;;;15.40;75.00;;;;;;5084438;28;21116;-79
2023/10/03 00:41:29;;;;;;;28.80;12.93;;;15.40;75.00;;;;;;5085054;28;20464;-78
2023/10/03 00:44:01;;;;;;;27.27;13.93;;;15.40;75.00;;;;;;5087350;28;20455;-79
2023/10/03 00:46:30;;;;;;;27.77;12.23;;;15.40;74.80;;;;;;5089972;28;20525;-78
2023/10/03 00:49:00;;;;;;;27.67;13.27;;;15.30;74.80;;;;;;5088849;28;20452;-79
2023/10/03 00:51:31;;;;;;;28.10;11.70;;;15.20;74.90;;;;;;5101065;28;20473;-80
2023/10/03 00:54:02;;;;;;;28.93;13.23;;;15.20;74.80;;;;;;5104928;28;20523;-80
2023/10/03 00:56:31;;;;;;;30.70;12.63;;;15.10;74.90;;;;;;5086951;28;20474;-78
2023/10/03 00:59:00;;;;;;;26.07;11.97;;;15.10;75.10;;;;;;5086345;28;20468;-79
2023/10/03 01:01:33;;;;;;;26.00;12.50;;;15.00;75.20;;;;;;5085900;28;20507;-79
2023/10/03 01:04:01;;;;;;;34.87;14.17;;;15.00;75.30;;;;;;5087693;28;20553;-79
2023/10/03 01:06:31;;;;;;;25.90;11.90;;;15.10;75.30;;;;;;5091641;28;20886;-79
2023/10/03 01:09:00;;;;;;;24.87;11.63;;;15.10;75.30;;;;;;5090958;28;20949;-79
2023/10/03 01:11:30;;;;;;;26.90;12.90;;;15.10;75.20;;;;;;5087429;28;20478;-78
2023/10/03 01:14:00;;;;;;;25.27;12.07;;;15.10;75.30;;;;;;5103879;28;20461;-78
2023/10/03 01:16:36;;;;;;;31.83;12.43;;;15.00;75.20;;;;;;5105801;28;20449;-79
2023/10/03 01:19:13;;;;;;;28.33;11.10;;;15.00;75.30;;;;;;5085685;28;20454;-79
2023/10/03 01:21:41;;;;;;;25.30;11.60;;;15.00;75.40;;;;;;5104945;28;20952;-79
2023/10/03 01:24:14;;;;;;;24.00;10.80;;;15.00;75.40;;;;;;5087812;28;20880;-80
2023/10/03 01:26:44;;;;;;;24.00;11.67;;;15.00;75.40;;;;;;5089528;28;20499;-80
2023/10/03 01:29:13;;;;;;;24.93;11.47;;;15.00;75.50;;;;;;5089678;28;20450;-80
2023/10/03 01:31:42;;;;;;;25.30;11.40;;;15.00;75.50;;;;;;5099205;28;20473;-79
2023/10/03 01:34:11;;;;;;;27.20;12.50;;;15.00;75.50;;;;;;5087792;28;20462;-79
2023/10/03 01:36:40;;;;;;;28.33;12.20;;;15.00;75.50;;;;;;5088603;28;20482;-79
2023/10/03 01:39:11;;;;;;;28.90;13.80;;;15.00;75.40;;;;;;5088313;28;20490;-79
2023/10/03 01:42:08;;;;;;;24.47;10.93;;;15.00;75.50;;;;;;5096013;28;20558;-79
2023/10/03 01:44:36;;;;;;;25.57;11.63;;;15.00;75.40;;;;;;5088554;28;20547;-79
2023/10/03 01:47:05;;;;;;;29.83;13.07;;;15.00;75.40;;;;;;5089329;28;20521;-79
2023/10/03 01:49:33;;;;;;;28.40;13.50;;;15.00;75.30;;;;;;5086174;28;20440;-79
2023/10/03 01:52:02;;;;;;;24.70;12.27;;;15.00;75.20;;;;;;5086353;28;20460;-79
2023/10/03 01:54:31;;;;;;;24.40;11.73;;;14.90;75.20;;;;;;5088382;28;20449;-79
2023/10/03 01:57:00;;;;;;;25.73;12.00;;;14.90;75.30;;;;;;5087936;28;21237;-78
2023/10/03 01:59:29;;;;;;;26.63;12.20;;;14.90;75.30;;;;;;5087415;28;20551;-79
2023/10/03 02:01:58;;;;;;;26.53;12.40;;;14.90;75.30;;;;;;5087718;28;20521;-80
2023/10/03 02:04:28;;;;;;;25.23;11.80;;;14.90;75.30;;;;;;5085951;28;20460;-79
2023/10/03 02:06:57;;;;;;;30.70;12.57;;;14.90;75.30;;;;;;5087604;28;20849;-80
2023/10/03 02:09:25;;;;;;;31.90;14.47;;;14.90;75.40;;;;;;5082736;28;20452;-79
2023/10/03 02:11:53;;;;;;;28.23;12.07;;;14.90;75.30;;;;;;5090064;28;20965;-79
2023/10/03 02:14:21;;;;;;;26.53;13.23;;;14.90;75.20;;;;;;5081475;28;20452;-80
2023/10/03 02:16:51;;;;;;;32.00;14.00;;;14.90;75.20;;;;;;5084100;28;20653;-80
2023/10/03 02:19:20;;;;;;;26.40;12.40;;;14.80;75.10;;;;;;5085595;28;20459;-79
2023/10/03 02:21:59;;;;;;;27.17;11.67;;;14.80;75.10;;;;;;5086846;28;20487;-79
2023/10/03 02:24:27;;;;;;;26.13;11.97;;;14.70;75.20;;;;;;5086045;28;20943;-79
2023/10/03 02:26:55;;;;;;;25.57;11.30;;;14.60;75.30;;;;;;5083891;28;20457;-79
2023/10/03 02:29:23;;;;;;;28.67;12.33;;;14.60;75.30;;;;;;5083914;28;20870;-79
2023/10/03 02:31:53;;;;;;;33.20;12.23;;;14.60;75.40;;;;;;5105057;28;20503;-80
2023/10/03 02:34:21;;;;;;;25.83;13.40;;;14.50;75.50;;;;;;5086680;28;20471;-79
2023/10/03 02:36:49;;;;;;;24.93;12.23;;;14.50;75.50;;;;;;5084027;28;20459;-80
2023/10/03 02:39:25;;;;;;;31.50;14.20;;;14.50;75.50;;;;;;5086190;28;21140;-79
2023/10/03 02:41:54;;;;;;;24.77;12.50;;;14.50;75.60;;;;;;5087632;28;20476;-79
2023/10/03 02:44:23;;;;;;;31.47;12.63;;;14.50;75.70;;;;;;5089065;28;20850;-79
2023/10/03 02:46:52;;;;;;;24.33;11.93;;;14.50;75.60;;;;;;5088330;28;20452;-80
2023/10/03 02:49:22;;;;;;;28.80;12.37;;;14.50;75.50;;;;;;5087001;28;20957;-81
2023/10/03 02:51:53;;;;;;;34.57;13.23;;;14.40;75.50;;;;;;5100496;28;20451;-79
2023/10/03 02:54:22;;;;;;;28.50;11.80;;;14.40;75.50;;;;;;5097933;28;20516;-79
2023/10/03 02:56:51;;;;;;;26.30;12.43;;;14.40;75.50;;;;;;5087826;28;20844;-80
2023/10/03 02:59:20;;;;;;;27.43;12.47;;;14.40;75.60;;;;;;5089291;28;20976;-79
2023/10/03 03:01:52;;;;;;;27.23;12.27;;;14.40;75.50;;;;;;5077037;28;20482;-80
2023/10/03 03:04:23;;;;;;;29.50;13.40;;;14.40;75.50;;;;;;5085306;28;20484;-79
2023/10/03 03:06:53;;;;;;;30.50;13.37;;;14.40;75.40;;;;;;5068277;28;20997;-79
2023/10/03 03:09:23;;;;;;;31.63;14.13;;;14.40;75.60;;;;;;5085558;28;20458;-81
2023/10/03 03:11:55;;;;;;;29.80;12.60;;;14.30;75.70;;;;;;5067551;28;20490;-80
2023/10/03 03:14:26;;;;;;;29.43;13.43;;;14.40;75.80;;;;;;5083473;28;20498;-81
2023/10/03 03:17:06;;;;;;;29.80;13.33;;;14.40;75.70;;;;;;5086216;28;20500;-79
2023/10/03 03:19:40;;;;;;;28.93;14.30;;;14.40;75.80;;;;;;5065922;28;20486;-79
2023/10/03 03:22:10;;;;;;;30.50;13.40;;;14.40;75.80;;;;;;5086496;28;20511;-81
2023/10/03 03:24:38;;;;;;;24.80;12.27;;;14.40;75.80;;;;;;5083973;28;20467;-78
2023/10/03 03:27:11;;;;;;;29.60;14.40;;;14.40;75.90;;;;;;5088158;28;20461;-77
2023/10/03 03:29:57;;;;;;;27.27;13.10;;;14.40;75.90;;;;;;5064936;28;20455;-81
2023/10/03 03:32:27;;;;;;;26.57;13.37;;;14.40;75.90;;;;;;5090509;28;20472;-77
2023/10/03 03:34:57;;;;;;;29.00;13.37;;;14.40;76.10;;;;;;5090975;28;20462;-78
2023/10/03 03:37:31;;;;;;;41.67;16.33;;;14.50;76.20;;;;;;5087108;28;20437;-81
2023/10/03 03:40:10;;;;;;;38.00;16.50;;;14.50;76.30;;;;;;5088122;28;20453;-80
2023/10/03 03:42:38;;;;;;;34.40;16.40;;;14.60;76.50;;;;;;5083788;28;21081;-79
2023/10/03 03:45:07;;;;;;;38.33;16.37;;;14.60;76.60;;;;;;5085894;28;20475;-79
2023/10/03 03:47:35;;;;;;;33.77;14.90;;;14.60;76.70;;;;;;5089044;28;20529;-80
2023/10/03 03:50:10;;;;;;;34.60;15.47;;;14.60;76.70;;;;;;5088258;28;20767;-81
2023/10/03 03:52:40;;;;;;;38.50;16.63;;;14.60;76.80;;;;;;5086774;28;20495;-80
2023/10/03 03:55:11;;;;;;;38.87;17.30;;;14.60;76.90;;;;;;5070257;28;20488;-80
2023/10/03 03:57:39;;;;;;;36.30;17.73;;;14.60;77.20;;;;;;5084592;28;20456;-80
2023/10/03 04:00:11;;;;;;;34.20;15.73;;;14.70;77.30;;;;;;5087122;28;20460;-80
2023/10/03 04:02:39;;;;;;;36.97;16.60;;;14.70;77.40;;;;;;5086766;28;20564;-80
2023/10/03 04:05:12;;;;;;;37.43;17.90;;;14.80;77.40;;;;;;5087298;28;20472;-79
2023/10/03 04:07:41;;;;;;;35.67;15.67;;;14.80;77.40;;;;;;5086166;28;20452;-79
2023/10/03 04:10:12;;;;;;;37.93;15.17;;;14.90;77.40;;;;;;5084835;28;20456;-80
2023/10/03 04:12:41;;;;;;;29.07;14.27;;;14.90;77.40;;;;;;5085022;28;20460;-80
2023/10/03 04:15:13;;;;;;;32.43;14.67;;;14.90;77.40;;;;;;5068343;28;20602;-80
2023/10/03 04:17:42;;;;;;;31.07;15.37;;;14.90;77.40;;;;;;5081790;28;20457;-80
2023/10/03 04:20:19;;;;;;;39.17;17.00;;;14.90;77.50;;;;;;5084997;28;20474;-79
2023/10/03 04:22:50;;;;;;;38.73;16.47;;;14.90;77.60;;;;;;5084380;28;20478;-80
2023/10/03 04:25:19;;;;;;;32.57;15.40;;;15.00;77.80;;;;;;5069570;28;21060;-80
2023/10/03 04:27:48;;;;;;;36.97;17.50;;;15.00;77.80;;;;;;5086072;28;20563;-79
2023/10/03 04:30:20;;;;;;;32.97;15.60;;;15.00;77.90;;;;;;5087807;28;20463;-77
2023/10/03 04:32:48;;;;;;;34.43;15.60;;;15.10;78.00;;;;;;5084595;28;20874;-77
2023/10/03 04:35:19;;;;;;;34.80;15.90;;;15.10;78.00;;;;;;5083074;28;20497;-78
2023/10/03 04:37:51;;;;;;;39.50;17.80;;;15.20;78.10;;;;;;5087800;28;20456;-80
2023/10/03 04:40:23;;;;;;;34.57;16.93;;;15.20;78.10;;;;;;5085558;28;20550;-79
2023/10/03 04:42:52;;;;;;;34.00;16.97;;;15.20;78.20;;;;;;5087950;28;20480;-80
2023/10/03 04:45:20;;;;;;;34.43;15.33;;;15.30;78.30;;;;;;5061796;28;20894;-79
2023/10/03 04:47:49;;;;;;;39.30;18.20;;;15.30;78.40;;;;;;5064603;28;20460;-79
2023/10/03 04:50:22;;;;;;;41.93;17.53;;;15.40;78.30;;;;;;5069284;28;20475;-80
2023/10/03 04:52:51;;;;;;;37.17;17.80;;;15.40;78.50;;;;;;5068305;28;20452;-80
2023/10/03 04:55:20;;;;;;;49.80;20.10;;;15.40;78.60;;;;;;5083649;28;20451;-80
2023/10/03 04:57:50;;;;;;;43.10;20.30;;;15.50;78.80;;;;;;5085273;28;20540;-79
2023/10/03 05:00:19;;;;;;;39.30;18.37;;;15.60;78.90;;;;;;5084468;28;20453;-80
2023/10/03 05:02:57;;;;;;;41.03;17.87;;;15.60;79.00;;;;;;5091111;28;20474;-80
2023/10/03 05:05:28;;;;;;;40.10;17.77;;;15.70;79.00;;;;;;5088668;28;20456;-80
2023/10/03 05:07:58;;;;;;;34.67;16.40;;;15.70;79.00;;;;;;5087531;28;20453;-80
2023/10/03 05:10:29;;;;;;;40.60;19.07;;;15.80;79.00;;;;;;5081909;28;20825;-81
2023/10/03 05:12:58;;;;;;;44.57;20.77;;;15.80;79.10;;;;;;5085413;28;21099;-81
2023/10/03 05:15:27;;;;;;;40.83;20.30;;;15.90;79.40;;;;;;5069627;28;20449;-80
2023/10/03 05:17:55;;;;;;;45.00;20.83;;;16.00;79.80;;;;;;5082754;28;20461;-80
2023/10/03 05:20:34;;;;;;;45.10;20.80;;;16.10;79.90;;;;;;5085530;28;20447;-81
2023/10/03 05:23:03;;;;;;;44.27;20.43;;;16.20;80.10;;;;;;5070698;28;20851;-80
2023/10/03 05:25:36;;;;;;;41.03;19.13;;;16.30;80.00;;;;;;5085001;28;20716;-80
2023/10/03 05:28:05;;;;;;;38.70;19.73;;;16.40;80.10;;;;;;5082574;28;20460;-80
2023/10/03 05:30:38;;;;;;;46.43;18.30;;;16.50;80.20;;;;;;5086406;28;20494;-80
2023/10/03 05:33:06;;;;;;;46.20;19.77;;;16.60;80.20;;;;;;5090273;28;20456;-80
2023/10/03 05:35:37;;;;;;;41.07;19.00;;;16.70;80.20;;;;;;5088095;28;20507;-79
2023/10/03 05:38:07;;;;;;;42.27;19.10;;;16.80;80.10;;;;;;5073172;28;20453;-78
2023/10/03 05:40:35;;;;;;;38.20;17.87;;;16.80;80.10;;;;;;5090367;28;20448;-80
2023/10/03 05:43:05;;;;;;;37.60;18.10;;;16.90;80.10;;;;;;5090815;28;20573;-81
2023/10/03 05:45:35;;;;;;;38.43;18.60;;;16.90;80.10;;;;;;5091248;28;21076;-79
2023/10/03 05:48:05;;;;;;;34.70;18.03;;;17.00;80.10;;;;;;5077954;28;20951;-80
2023/10/03 05:50:34;;;;;;;38.60;18.77;;;17.10;80.10;;;;;;5072433;28;20541;-79
2023/10/03 05:53:06;;;;;;;37.90;17.57;;;17.10;80.10;;;;;;5091822;28;20445;-78
2023/10/03 05:55:35;;;;;;;35.63;16.70;;;17.20;80.10;;;;;;5076544;28;20535;-81
2023/10/03 05:58:06;;;;;;;37.20;16.90;;;17.20;80.00;;;;;;5089764;28;20541;-78
2023/10/03 06:00:35;;;;;;;35.77;17.00;;;17.20;79.90;;;;;;5088946;28;20468;-81
2023/10/03 06:03:04;;;;;;;38.13;18.10;;;17.30;79.90;;;;;;5088811;28;21323;-81
2023/10/03 06:05:32;;;;;;;37.80;18.10;;;17.30;79.90;;;;;;5070430;28;20514;-81
2023/10/03 06:08:00;;;;;;;38.27;17.83;;;17.40;79.80;;;;;;5087477;28;20982;-81
2023/10/03 06:10:30;;;;;;;36.73;16.50;;;17.40;79.70;;;;;;5086164;28;20449;-80
2023/10/03 06:12:58;;;;;;;37.87;16.73;;;17.50;79.60;;;;;;5085901;28;20449;-80
2023/10/03 06:15:25;;;;;;;31.27;15.80;;;17.50;79.60;;;;;;5084787;28;20545;-80
2023/10/03 06:17:54;;;;;;;35.83;16.13;;;17.50;79.50;;;;;;5086893;28;20474;-81
2023/10/03 06:20:24;;;;;;;30.70;15.60;;;17.60;79.50;;;;;;5087048;28;20826;-80
2023/10/03 06:22:53;;;;;;;31.40;15.10;;;17.60;79.40;;;;;;5085102;28;20481;-80
2023/10/03 06:25:21;;;;;;;34.97;16.27;;;17.60;79.30;;;;;;5090143;28;20512;-80
2023/10/03 06:27:51;;;;;;;31.70;15.43;;;17.60;79.30;;;;;;5086505;28;20467;-79
2023/10/03 06:30:19;;;;;;;27.70;15.07;;;17.70;79.30;;;;;;5083829;28;20488;-79
2023/10/03 06:32:47;;;;;;;35.20;15.90;;;17.70;79.20;;;;;;5087251;28;20944;-80
2023/10/03 06:35:17;;;;;;;27.60;13.97;;;17.80;79.20;;;;;;5087045;28;20586;-80
2023/10/03 06:37:48;;;;;;;33.10;14.80;;;17.80;79.10;;;;;;5074831;28;20456;-79
2023/10/03 06:40:16;;;;;;;26.50;13.50;;;17.90;78.90;;;;;;5091938;28;20536;-76
2023/10/03 06:42:44;;;;;;;29.10;13.97;;;18.00;78.90;;;;;;5087568;28;20584;-80
2023/10/03 06:45:14;;;;;;;25.00;13.13;;;18.00;78.90;;;;;;5086029;28;20508;-78
2023/10/03 06:47:42;;;;;;;27.57;13.57;;;18.10;78.80;;;;;;5087343;28;20549;-80
2023/10/03 06:50:10;;;;;;;29.30;14.70;;;18.20;78.70;;;;;;5089967;28;20449;-79
2023/10/03 06:52:38;;;;;;;26.47;14.07;;;18.30;78.60;;;;;;5086745;28;21063;-79
2023/10/03 06:55:10;;;;;;;30.73;13.30;;;18.40;78.40;;;;;;5086144;28;20457;-80
2023/10/03 06:57:40;;;;;;;28.30;12.90;;;18.40;78.40;;;;;;5086690;28;20506;-80
2023/10/03 07:00:21;;;;;;;25.90;12.50;;;18.50;78.20;;;;;;5083045;28;20466;-79
2023/10/03 07:02:49;;;;;;;25.50;12.70;;;18.60;77.90;;;;;;5087867;28;20479;-80
2023/10/03 07:05:18;;;;;;;27.10;13.23;;;18.70;77.70;;;;;;5085125;28;20468;-81
2023/10/03 07:07:47;;;;;;;23.40;11.40;;;18.80;77.60;;;;;;5084305;28;20527;-78
2023/10/03 07:10:15;;;;;;;24.43;11.73;;;18.90;77.30;;;;;;5068613;28;20480;-80
2023/10/03 07:12:44;;;;;;;25.83;12.13;;;18.90;77.20;;;;;;5087166;28;20536;-79
2023/10/03 07:15:12;;;;;;;23.77;11.70;;;19.00;77.10;;;;;;5083261;28;20536;-80
2023/10/03 07:17:41;;;;;;;26.63;12.80;;;19.10;76.90;;;;;;5085548;28;20483;-80
2023/10/03 07:20:12;;;;;;;23.53;11.50;;;19.10;76.70;;;;;;5087418;28;20453;-79
2023/10/03 07:22:42;;;;;;;25.57;11.40;;;19.20;76.60;;;;;;5090612;28;20471;-79
2023/10/03 07:25:11;;;;;;;23.80;11.57;;;19.30;76.50;;;;;;5088942;28;20441;-80
2023/10/03 07:27:41;;;;;;;22.80;11.70;;;19.30;76.40;;;;;;5090126;28;20545;-81
2023/10/03 07:30:11;;;;;;;25.80;12.47;;;19.40;76.40;;;;;;5085947;28;20451;-80
2023/10/03 07:32:39;;;;;;;23.00;11.40;;;19.40;76.30;;;;;;5069889;28;20493;-80
2023/10/03 07:35:11;;;;;;;24.97;11.97;;;19.50;76.20;;;;;;5083546;28;20455;-80
2023/10/03 07:37:40;;;;;;;25.57;12.27;;;19.60;76.10;;;;;;5066482;28;21354;-79
2023/10/03 07:40:09;;;;;;;23.27;11.30;;;19.60;75.90;;;;;;5088131;28;21220;-78
2023/10/03 07:42:38;;;;;;;25.93;11.77;;;19.70;75.70;;;;;;5082162;28;20506;-80
2023/10/03 07:45:08;;;;;;;22.27;11.47;;;19.70;75.70;;;;;;5083360;28;20487;-78
2023/10/03 07:47:39;;;;;;;28.60;11.23;;;19.80;75.60;;;;;;5099055;28;20457;-78
2023/10/03 07:50:11;;;;;;;21.13;11.53;;;19.80;75.40;;;;;;5080072;28;21236;-80
2023/10/03 07:52:41;;;;;;;20.60;11.43;;;19.90;75.30;;;;;;5098293;28;20480;-79
2023/10/03 07:55:09;;;;;;;19.23;10.97;;;19.90;75.20;;;;;;5085885;28;20532;-79
2023/10/03 07:57:41;;;;;;;22.47;11.80;;;20.00;75.10;;;;;;5088502;28;20931;-80
2023/10/03 08:00:20;;;;;;;21.50;10.70;;;20.10;74.90;;;;;;5065668;28;20461;-80
2023/10/03 08:02:49;;;;;;;20.27;10.73;;;20.10;74.70;;;;;;5067160;28;20453;-80
2023/10/03 08:05:20;;;;;;;21.10;10.77;;;20.20;74.70;;;;;;5084888;28;20561;-79
2023/10/03 08:07:48;;;;;;;21.80;10.30;;;20.30;74.40;;;;;;5085931;28;20459;-80
2023/10/03 08:10:17;;;;;;;23.30;10.83;;;20.40;74.40;;;;;;5068123;28;20480;-80
2023/10/03 08:12:47;;;;;;;19.20;9.67;;;20.50;74.20;;;;;;5080968;28;20461;-80
2023/10/03 08:15:21;;;;;;;18.33;9.83;;;20.50;74.00;;;;;;5065493;28;20630;-80
2023/10/03 08:17:53;;;;;;;21.40;10.80;;;20.60;73.70;;;;;;5081683;28;20470;-79
2023/10/03 08:20:23;;;;;;;18.90;9.33;;;20.70;73.60;;;;;;5085190;28;20488;-79
2023/10/03 08:22:55;;;;;;;18.53;9.20;;;20.80;73.40;;;;;;5085650;28;20449;-80
2023/10/03 08:25:24;;;;;;;16.60;8.67;;;20.90;73.00;;;;;;5065798;28;20926;-79
2023/10/03 08:27:55;;;;;;;18.87;9.27;;;21.00;72.80;;;;;;5086017;28;20529;-79
2023/10/03 08:30:29;;;;;;;20.40;10.63;;;21.10;72.60;;;;;;5085668;28;20449;-80
2023/10/03 08:33:00;;;;;;;21.57;10.80;;;21.20;72.50;;;;;;5073136;28;20506;-79
2023/10/03 08:35:37;;;;;;;19.13;9.53;;;21.20;72.20;;;;;;5065850;28;21278;-80
2023/10/03 08:38:07;;;;;;;16.00;9.00;;;21.30;72.00;;;;;;5084156;28;20531;-79
2023/10/03 08:40:38;;;;;;;18.87;9.40;;;21.30;71.90;;;;;;5082072;28;20457;-79
2023/10/03 08:43:09;;;;;;;22.90;9.37;;;21.30;71.70;;;;;;5085207;28;20457;-79
2023/10/03 08:45:41;;;;;;;21.30;9.97;;;21.40;71.70;;;;;;5085675;28;20491;-80
2023/10/03 08:48:10;;;;;;;16.40;9.00;;;21.40;71.60;;;;;;5086927;28;20465;-79
2023/10/03 08:50:46;;;;;;;21.53;9.30;;;21.50;71.70;;;;;;5084648;28;20457;-79
2023/10/03 08:53:26;;;;;;;16.63;8.83;;;21.60;71.60;;;;;;5085639;28;20551;-79
2023/10/03 08:56:03;;;;;;;15.87;8.80;;;21.70;71.40;;;;;;5084601;28;20530;-79
2023/10/03 08:58:32;;;;;;;18.80;9.40;;;21.70;71.40;;;;;;5081513;28;20460;-79
2023/10/03 09:01:02;;;;;;;15.07;8.50;;;21.80;71.40;;;;;;5094732;28;21058;-80
2023/10/03 09:03:46;;;;;;;14.53;7.60;;;21.80;71.40;;;;;;5085069;28;20455;-79
2023/10/03 09:06:20;;;;;;;15.00;7.80;;;21.90;71.60;;;;;;5087763;28;20480;-79
2023/10/03 09:08:50;;;;;;;18.20;7.63;;;21.90;71.60;;;;;;5090713;28;20460;-78
2023/10/03 09:11:20;;;;;;;14.80;8.10;;;22.00;71.40;;;;;;5089458;28;21006;-79
2023/10/03 09:13:49;;;;;;;15.27;7.27;;;22.10;71.20;;;;;;5088465;28;20507;-79
2023/10/03 09:16:19;;;;;;;20.57;8.60;;;22.20;71.00;;;;;;5099644;28;20460;-79
2023/10/03 09:18:56;;;;;;;13.17;6.80;;;22.20;70.90;;;;;;5088217;28;20537;-78
2023/10/03 09:21:27;;;;;;;19.87;8.17;;;22.20;70.70;;;;;;5085061;28;20452;-79
2023/10/03 09:24:09;;;;;;;13.67;7.20;;;22.20;70.70;;;;;;5069370;28;20454;-80
2023/10/03 09:26:45;;;;;;;17.23;7.50;;;22.30;70.70;;;;;;5088614;28;20460;-79
2023/10/03 09:29:30;;;;;;;15.83;7.53;;;22.30;70.50;;;;;;5071321;28;20452;-79
2023/10/03 09:32:07;;;;;;;13.90;7.87;;;22.40;70.40;;;;;;5069090;28;20476;-79
2023/10/03 09:34:40;;;;;;;13.63;6.97;;;22.40;70.20;;;;;;5083296;28;20448;-78
2023/10/03 09:37:10;;;;;;;15.83;8.00;;;22.40;70.20;;;;;;5086415;28;20461;-79
2023/10/03 09:39:48;;;;;;;17.87;7.90;;;22.40;70.30;;;;;;5087635;28;20466;-78
2023/10/03 09:42:23;;;;;;;13.60;6.57;;;22.40;70.30;;;;;;5087066;28;21025;-77
2023/10/03 09:44:57;;;;;;;13.10;7.57;;;22.40;70.20;;;;;;5087154;28;20574;-79
2023/10/03 09:47:30;;;;;;;13.50;7.13;;;22.50;70.10;;;;;;5087014;28;20456;-79
2023/10/03 09:50:06;;;;;;;13.57;7.20;;;22.50;70.20;;;;;;5088515;28;20547;-80
2023/10/03 09:52:38;;;;;;;12.97;6.93;;;22.50;70.30;;;;;;5084493;28;20461;-79
2023/10/03 09:55:21;;;;;;;12.60;7.03;;;22.60;70.30;;;;;;5087150;28;20543;-79
2023/10/03 09:57:54;;;;;;;14.83;7.60;;;22.60;70.00;;;;;;5086318;28;20484;-79
2023/10/03 10:00:38;;;;;;;12.67;7.40;;;22.60;70.00;;;;;;5085073;28;20468;-78
2023/10/03 10:03:11;;;;;;;13.30;7.20;;;22.70;69.90;;;;;;5086119;28;20452;-79
2023/10/03 10:05:46;;;;;;;13.57;7.27;;;22.70;69.80;;;;;;5088741;28;20837;-79
2023/10/03 10:08:27;;;;;;;12.60;6.73;;;22.70;69.60;;;;;;5088097;28;20453;-80
2023/10/03 10:11:07;;;;;;;13.40;7.00;;;22.80;69.50;;;;;;5074623;28;20459;-80
2023/10/03 10:13:37;;;;;;;13.20;7.30;;;22.80;69.50;;;;;;5081596;28;20471;-79
2023/10/03 10:16:11;;;;;;;14.10;7.50;;;22.80;69.50;;;;;;5071373;28;20492;-79
2023/10/03 10:18:58;;;;;;;15.50;7.50;;;22.80;69.30;;;;;;5100783;28;20457;-79
2023/10/03 10:21:31;;;;;;;15.03;8.03;;;22.80;69.30;;;;;;5097047;28;21345;-79
2023/10/03 10:24:24;;;;;;;14.40;7.80;;;22.80;69.20;;;;;;5087554;28;20460;-79
2023/10/03 10:26:53;;;;;;;11.87;7.57;;;22.80;69.20;;;;;;5087699;28;20537;-80
2023/10/03 10:29:24;;;;;;;15.37;8.43;;;22.80;69.30;;;;;;5082531;28;20457;-79
2023/10/03 10:31:58;;;;;;;15.90;7.13;;;22.80;69.30;;;;;;5095440;28;21089;-80
2023/10/03 10:34:37;;;;;;;13.60;7.40;;;22.80;69.30;;;;;;5099435;28;20468;-78
2023/10/03 10:37:10;;;;;;;12.47;6.80;;;22.90;69.20;;;;;;5069658;28;20494;-80
2023/10/03 10:40:17;;;;;;;14.63;7.27;;;22.80;69.30;;;;;;5089122;28;20453;-80
2023/10/03 10:43:06;;;;;;;11.17;7.03;;;22.90;69.30;;;;;;5084518;28;20460;-81
2023/10/03 10:45:38;;;;;;;15.90;8.03;;;22.80;69.30;;;;;;5083333;28;20554;-80
2023/10/03 10:48:08;;;;;;;19.03;7.73;;;22.80;69.40;;;;;;5069190;28;20721;-78
2023/10/03 10:51:09;;;;;;;15.50;7.80;;;22.80;69.40;;;;;;5085467;28;20484;-80
2023/10/03 10:53:43;;;;;;;12.03;7.30;;;22.80;69.50;;;;;;5083943;28;20452;-79
2023/10/03 10:56:14;;;;;;;15.03;8.00;;;22.90;69.50;;;;;;5086326;28;20498;-78
2023/10/03 10:58:50;;;;;;;14.80;7.80;;;22.80;69.60;;;;;;5096654;28;21299;-79
2023/10/03 11:01:19;;;;;;;15.87;7.87;;;22.80;69.60;;;;;;5095534;28;20472;-81
2023/10/03 11:03:47;;;;;;;13.73;8.20;;;22.80;69.60;;;;;;5083907;28;20445;-80
2023/10/03 11:06:16;;;;;;;17.23;7.90;;;22.80;69.70;;;;;;5087810;28;20979;-80
2023/10/03 11:08:48;;;;;;;12.60;7.53;;;22.80;69.70;;;;;;5081930;28;20473;-80
2023/10/03 11:11:19;;;;;;;11.40;7.50;;;22.80;69.80;;;;;;5084374;28;20474;-80
2023/10/03 11:13:49;;;;;;;13.70;7.40;;;22.90;69.90;;;;;;5079688;28;20529;-81
2023/10/03 11:16:28;;;;;;;13.77;6.93;;;22.90;70.10;;;;;;5096868;28;20544;-80
2023/10/03 11:18:58;;;;;;;15.10;7.73;;;22.90;70.10;;;;;;5086121;28;20467;-80
2023/10/03 11:21:29;;;;;;;16.00;8.63;;;22.90;70.20;;;;;;5090361;28;20463;-80
2023/10/03 11:24:26;;;;;;;15.87;7.70;;;22.90;70.30;;;;;;5072048;28;20452;-80
2023/10/03 11:26:57;;;;;;;13.90;7.70;;;23.00;70.40;;;;;;5088080;28;20569;-80
2023/10/03 11:29:39;;;;;;;19.53;8.57;;;23.00;70.50;;;;;;5086455;28;20471;-79
2023/10/03 11:32:19;;;;;;;18.10;7.57;;;23.10;70.30;;;;;;5088225;28;20993;-80
2023/10/03 11:34:48;;;;;;;13.17;7.57;;;23.20;70.20;;;;;;5078627;28;20461;-80
2023/10/03 11:37:36;;;;;;;13.63;8.00;;;23.20;70.20;;;;;;5085834;28;20948;-81
2023/10/03 11:40:14;;;;;;;12.27;7.20;;;23.20;70.10;;;;;;5086055;28;20457;-80
2023/10/03 11:42:51;;;;;;;11.60;6.90;;;23.20;70.20;;;;;;5084936;28;21044;-79
2023/10/03 11:45:20;;;;;;;13.50;7.20;;;23.20;70.00;;;;;;5085070;28;20476;-81
2023/10/03 11:48:05;;;;;;;16.00;7.37;;;23.30;69.90;;;;;;5083500;28;20549;-79
2023/10/03 11:50:36;;;;;;;13.50;7.10;;;23.30;69.70;;;;;;5081808;28;20463;-79
2023/10/03 11:53:05;;;;;;;18.20;8.10;;;23.30;69.80;;;;;;5084759;28;20540;-81
2023/10/03 11:55:36;;;;;;;15.30;7.90;;;23.40;69.60;;;;;;5083620;28;20465;-79
2023/10/03 11:58:06;;;;;;;18.47;7.63;;;23.40;69.40;;;;;;5084536;28;20464;-79
2023/10/03 12:00:35;;;;;;;10.60;6.60;;;23.40;69.20;;;;;;5082624;28;20540;-80
2023/10/03 12:03:05;;;;;;;14.50;6.73;;;23.40;69.20;;;;;;5083789;28;20474;-80
2023/10/03 12:05:34;;;;;;;12.87;7.47;;;23.40;69.20;;;;;;5084580;28;20473;-78
2023/10/03 12:08:03;;;;;;;19.43;7.67;;;23.40;69.10;;;;;;5086588;28;20480;-81
2023/10/03 12:10:34;;;;;;;13.80;6.13;;;23.40;69.00;;;;;;5085906;28;20477;-78
2023/10/03 12:13:02;;;;;;;12.73;6.87;;;23.40;69.00;;;;;;5088406;28;20999;-80
2023/10/03 12:15:32;;;;;;;13.63;7.10;;;23.30;69.10;;;;;;5086935;28;20939;-79
2023/10/03 12:18:00;;;;;;;12.13;6.57;;;23.30;69.20;;;;;;5084921;28;20464;-79
2023/10/03 12:20:31;;;;;;;13.87;7.30;;;23.40;69.30;;;;;;5084616;28;20451;-80
2023/10/03 12:22:59;;;;;;;12.80;7.13;;;23.40;69.20;;;;;;5081535;28;20868;-80
2023/10/03 12:25:29;;;;;;;14.83;7.67;;;23.50;69.10;;;;;;5086712;28;20452;-79
2023/10/03 12:27:57;;;;;;;15.67;7.20;;;23.50;69.00;;;;;;5084818;28;20496;-81
2023/10/03 12:30:25;;;;;;;13.43;7.10;;;23.50;68.90;;;;;;5084349;28;20926;-81
2023/10/03 12:32:55;;;;;;;14.80;6.70;;;23.50;68.80;;;;;;5083676;28;20461;-78
2023/10/03 12:35:23;;;;;;;11.70;6.33;;;23.50;68.60;;;;;;5087185;28;20954;-77
2023/10/03 12:37:51;;;;;;;11.33;7.17;;;23.40;68.70;;;;;;5083197;28;20962;-79
2023/10/03 12:40:22;;;;;;;16.13;6.33;;;23.40;68.70;;;;;;5086310;28;20526;-77
2023/10/03 12:42:51;;;;;;;15.50;7.00;;;23.40;68.70;;;;;;5084187;28;20448;-78
2023/10/03 12:45:21;;;;;;;12.87;6.60;;;23.40;68.80;;;;;;5092055;28;20500;-79
2023/10/03 12:47:53;;;;;;;15.50;6.93;;;23.40;68.80;;;;;;5088803;28;20484;-79
2023/10/03 12:50:24;;;;;;;12.50;6.90;;;23.50;68.80;;;;;;5087753;28;20499;-80
2023/10/03 12:52:52;;;;;;;13.70;6.53;;;23.50;68.70;;;;;;5103932;28;20506;-79